Harrisville, Indiana
Current Conditions -  °F | °C
As of 11:55 AM on Saturday 25 Oct 2014 (Local Time) from KVES Reporting Station
Clear Clear  
Wind Chill: 18°   Ceiling: Unl
Heat Index: 18°   Visibility: 10mi
Dew Point: 13°   Wind: 12mph
Humidity: 73%   Direction: 260°W
Pressure: 29.93"   Gusts: 20mph
Location:  40.2091°N, 84.8536°W
Report Text: KVES 251555Z AUTO 26010G17KT 10SM CLR 18/13 A2993 RMK AO2
Loading
Personal Weather Stations






























Interactive Weather Map
Tropical Storm Tracking
New forecast layout! Learn more

10-Day Weather Forecast

Advertisements
Track Severe Weather on mobile